sensor_id;sensor_type;location;lat;lon;timestamp;P1;durP1;ratioP1;P2;durP2;ratioP2
12519;SDS011;6325;49.540;8.364;2023-08-31T00:01:09;2.13;;;2.00;;
12519;SDS011;6325;49.540;8.364;2023-08-31T00:03:36;1.98;;;1.88;;
12519;SDS011;6325;49.540;8.364;2023-08-31T00:06:03;1.90;;;1.80;;
12519;SDS011;6325;49.540;8.364;2023-08-31T00:08:32;1.40;;;1.40;;
12519;SDS011;6325;49.540;8.364;2023-08-31T00:11:01;1.87;;;1.77;;
12519;SDS011;6325;49.540;8.364;2023-08-31T00:13:28;2.00;;;1.90;;
12519;SDS011;6325;49.540;8.364;2023-08-31T00:15:55;2.67;;;2.38;;
12519;SDS011;6325;49.540;8.364;2023-08-31T00:18:23;2.20;;;2.10;;
12519;SDS011;6325;49.540;8.364;2023-08-31T00:20:50;2.30;;;2.20;;
12519;SDS011;6325;49.540;8.364;2023-08-31T00:23:18;2.40;;;2.20;;
12519;SDS011;6325;49.540;8.364;2023-08-31T00:25:45;2.50;;;2.30;;
12519;SDS011;6325;49.540;8.364;2023-08-31T00:28:15;2.53;;;2.33;;
12519;SDS011;6325;49.540;8.364;2023-08-31T00:30:43;2.70;;;2.50;;
12519;SDS011;6325;49.540;8.364;2023-08-31T00:33:11;3.08;;;2.88;;
12519;SDS011;6325;49.540;8.364;2023-08-31T00:35:38;2.90;;;2.70;;
12519;SDS011;6325;49.540;8.364;2023-08-31T00:38:11;3.72;;;3.13;;
12519;SDS011;6325;49.540;8.364;2023-08-31T00:40:39;3.08;;;2.88;;
12519;SDS011;6325;49.540;8.364;2023-08-31T00:43:07;2.30;;;2.20;;
12519;SDS011;6325;49.540;8.364;2023-08-31T00:45:36;1.90;;;1.80;;
12519;SDS011;6325;49.540;8.364;2023-08-31T00:48:04;2.22;;;2.03;;
12519;SDS011;6325;49.540;8.364;2023-08-31T00:50:31;3.63;;;3.30;;
12519;SDS011;6325;49.540;8.364;2023-08-31T00:52:58;4.00;;;3.60;;
12519;SDS011;6325;49.540;8.364;2023-08-31T00:55:25;3.80;;;3.50;;
12519;SDS011;6325;49.540;8.364;2023-08-31T00:57:53;3.40;;;3.10;;
12519;SDS011;6325;49.540;8.364;2023-08-31T01:00:20;3.55;;;3.25;;
12519;SDS011;6325;49.540;8.364;2023-08-31T01:02:54;2.80;;;2.60;;
12519;SDS011;6325;49.540;8.364;2023-08-31T01:05:29;2.50;;;2.30;;
12519;SDS011;6325;49.540;8.364;2023-08-31T01:08:03;2.40;;;2.20;;
12519;SDS011;6325;49.540;8.364;2023-08-31T01:10:36;2.50;;;2.40;;
12519;SDS011;6325;49.540;8.364;2023-08-31T01:13:07;3.90;;;3.55;;
12519;SDS011;6325;49.540;8.364;2023-08-31T01:15:36;3.10;;;2.90;;
12519;SDS011;6325;49.540;8.364;2023-08-31T01:18:06;3.80;;;3.50;;
12519;SDS011;6325;49.540;8.364;2023-08-31T01:20:37;3.40;;;3.20;;
12519;SDS011;6325;49.540;8.364;2023-08-31T01:23:06;3.78;;;3.47;;
12519;SDS011;6325;49.540;8.364;2023-08-31T01:25:36;3.83;;;3.50;;
12519;SDS011;6325;49.540;8.364;2023-08-31T01:28:04;4.50;;;4.10;;
12519;SDS011;6325;49.540;8.364;2023-08-31T01:30:32;5.18;;;4.40;;
12519;SDS011;6325;49.540;8.364;2023-08-31T01:33:01;4.40;;;4.00;;
12519;SDS011;6325;49.540;8.364;2023-08-31T01:35:28;3.65;;;3.35;;
12519;SDS011;6325;49.540;8.364;2023-08-31T01:37:58;3.47;;;3.17;;
12519;SDS011;6325;49.540;8.364;2023-08-31T01:40:28;3.10;;;2.90;;
12519;SDS011;6325;49.540;8.364;2023-08-31T01:42:59;3.00;;;2.80;;
12519;SDS011;6325;49.540;8.364;2023-08-31T01:45:28;3.15;;;2.95;;
12519;SDS011;6325;49.540;8.364;2023-08-31T01:47:58;3.00;;;2.80;;
12519;SDS011;6325;49.540;8.364;2023-08-31T01:50:25;3.50;;;3.20;;
12519;SDS011;6325;49.540;8.364;2023-08-31T01:52:52;3.50;;;3.20;;
12519;SDS011;6325;49.540;8.364;2023-08-31T01:55:20;3.30;;;3.00;;
12519;SDS011;6325;49.540;8.364;2023-08-31T01:57:47;3.25;;;3.05;;
12519;SDS011;6325;49.540;8.364;2023-08-31T02:00:17;3.15;;;2.95;;
12519;SDS011;6325;49.540;8.364;2023-08-31T02:02:44;3.00;;;2.90;;
12519;SDS011;6325;49.540;8.364;2023-08-31T02:05:12;2.95;;;2.83;;
12519;SDS011;6325;49.540;8.364;2023-08-31T02:07:39;3.20;;;2.97;;
12519;SDS011;6325;49.540;8.364;2023-08-31T02:10:06;3.00;;;2.80;;
12519;SDS011;6325;49.540;8.364;2023-08-31T02:12:34;3.40;;;3.10;;
12519;SDS011;6325;49.540;8.364;2023-08-31T02:15:02;2.70;;;2.60;;
12519;SDS011;6325;49.540;8.364;2023-08-31T02:17:31;2.70;;;2.60;;
12519;SDS011;6325;49.540;8.364;2023-08-31T02:19:58;2.72;;;2.63;;
12519;SDS011;6325;49.540;8.364;2023-08-31T02:22:27;2.70;;;2.60;;
12519;SDS011;6325;49.540;8.364;2023-08-31T02:24:54;2.67;;;2.58;;
12519;SDS011;6325;49.540;8.364;2023-08-31T02:27:22;2.80;;;2.60;;
12519;SDS011;6325;49.540;8.364;2023-08-31T02:29:49;2.58;;;2.47;;
12519;SDS011;6325;49.540;8.364;2023-08-31T02:32:16;2.22;;;2.13;;
12519;SDS011;6325;49.540;8.364;2023-08-31T02:34:44;2.58;;;2.45;;
12519;SDS011;6325;49.540;8.364;2023-08-31T02:37:12;3.00;;;2.55;;
12519;SDS011;6325;49.540;8.364;2023-08-31T02:39:39;2.67;;;2.50;;
12519;SDS011;6325;49.540;8.364;2023-08-31T02:42:06;2.95;;;2.75;;
12519;SDS011;6325;49.540;8.364;2023-08-31T02:44:34;2.63;;;2.53;;
12519;SDS011;6325;49.540;8.364;2023-08-31T02:47:01;2.75;;;2.60;;
12519;SDS011;6325;49.540;8.364;2023-08-31T02:49:28;2.70;;;2.60;;
12519;SDS011;6325;49.540;8.364;2023-08-31T02:51:56;2.70;;;2.60;;
12519;SDS011;6325;49.540;8.364;2023-08-31T02:54:23;3.08;;;2.88;;
12519;SDS011;6325;49.540;8.364;2023-08-31T02:56:50;2.60;;;2.50;;
12519;SDS011;6325;49.540;8.364;2023-08-31T02:59:17;2.60;;;2.50;;
12519;SDS011;6325;49.540;8.364;2023-08-31T03:01:45;2.60;;;2.50;;
12519;SDS011;6325;49.540;8.364;2023-08-31T03:04:12;2.70;;;2.60;;
12519;SDS011;6325;49.540;8.364;2023-08-31T03:06:39;2.80;;;2.70;;
12519;SDS011;6325;49.540;8.364;2023-08-31T03:09:08;2.83;;;2.70;;
12519;SDS011;6325;49.540;8.364;2023-08-31T03:11:35;2.65;;;2.55;;
12519;SDS011;6325;49.540;8.364;2023-08-31T03:14:02;2.92;;;2.80;;
12519;SDS011;6325;49.540;8.364;2023-08-31T03:16:30;3.10;;;2.90;;
12519;SDS011;6325;49.540;8.364;2023-08-31T03:18:57;3.30;;;3.10;;
12519;SDS011;6325;49.540;8.364;2023-08-31T03:21:24;3.10;;;2.90;;
12519;SDS011;6325;49.540;8.364;2023-08-31T03:23:51;2.80;;;2.60;;
12519;SDS011;6325;49.540;8.364;2023-08-31T03:26:19;3.03;;;2.83;;
12519;SDS011;6325;49.540;8.364;2023-08-31T03:28:46;5.00;;;4.50;;
12519;SDS011;6325;49.540;8.364;2023-08-31T03:31:13;5.40;;;4.90;;
12519;SDS011;6325;49.540;8.364;2023-08-31T03:33:41;5.68;;;4.47;;
12519;SDS011;6325;49.540;8.364;2023-08-31T03:36:08;4.72;;;4.32;;
12519;SDS011;6325;49.540;8.364;2023-08-31T03:38:35;4.28;;;3.92;;
12519;SDS011;6325;49.540;8.364;2023-08-31T03:41:03;4.93;;;4.45;;
12519;SDS011;6325;49.540;8.364;2023-08-31T03:43:31;5.25;;;4.75;;
12519;SDS011;6325;49.540;8.364;2023-08-31T03:46:00;3.75;;;3.45;;
12519;SDS011;6325;49.540;8.364;2023-08-31T03:48:27;2.90;;;2.70;;
12519;SDS011;6325;49.540;8.364;2023-08-31T03:50:55;2.70;;;2.50;;
12519;SDS011;6325;49.540;8.364;2023-08-31T03:53:22;2.72;;;2.53;;
12519;SDS011;6325;49.540;8.364;2023-08-31T03:55:49;2.53;;;2.40;;
12519;SDS011;6325;49.540;8.364;2023-08-31T03:58:16;3.00;;;2.80;;
12519;SDS011;6325;49.540;8.364;2023-08-31T04:00:45;2.80;;;2.60;;
12519;SDS011;6325;49.540;8.364;2023-08-31T04:03:15;2.83;;;2.63;;
12519;SDS011;6325;49.540;8.364;2023-08-31T04:05:42;2.80;;;2.70;;
12519;SDS011;6325;49.540;8.364;2023-08-31T04:08:09;2.58;;;2.47;;
12519;SDS011;6325;49.540;8.364;2023-08-31T04:10:36;3.13;;;2.85;;
12519;SDS011;6325;49.540;8.364;2023-08-31T04:13:04;3.13;;;2.92;;
12519;SDS011;6325;49.540;8.364;2023-08-31T04:15:31;3.00;;;2.80;;
12519;SDS011;6325;49.540;8.364;2023-08-31T04:18:00;2.83;;;2.70;;
12519;SDS011;6325;49.540;8.364;2023-08-31T04:20:28;2.83;;;2.67;;
12519;SDS011;6325;49.540;8.364;2023-08-31T04:22:55;3.42;;;3.17;;
12519;SDS011;6325;49.540;8.364;2023-08-31T04:25:23;3.30;;;3.10;;
12519;SDS011;6325;49.540;8.364;2023-08-31T04:27:50;3.35;;;3.15;;
12519;SDS011;6325;49.540;8.364;2023-08-31T04:30:18;3.38;;;3.17;;
12519;SDS011;6325;49.540;8.364;2023-08-31T04:32:45;3.50;;;3.20;;
12519;SDS011;6325;49.540;8.364;2023-08-31T04:35:14;3.60;;;3.40;;
12519;SDS011;6325;49.540;8.364;2023-08-31T04:37:42;3.65;;;3.45;;
12519;SDS011;6325;49.540;8.364;2023-08-31T04:40:10;3.53;;;3.33;;
12519;SDS011;6325;49.540;8.364;2023-08-31T04:42:38;3.78;;;3.58;;
12519;SDS011;6325;49.540;8.364;2023-08-31T04:45:05;4.07;;;3.72;;
12519;SDS011;6325;49.540;8.364;2023-08-31T04:47:33;3.92;;;3.72;;
12519;SDS011;6325;49.540;8.364;2023-08-31T04:50:00;4.00;;;3.70;;
12519;SDS011;6325;49.540;8.364;2023-08-31T04:52:29;3.83;;;3.60;;
12519;SDS011;6325;49.540;8.364;2023-08-31T04:54:56;3.67;;;3.47;;
12519;SDS011;6325;49.540;8.364;2023-08-31T04:57:24;3.50;;;3.30;;
12519;SDS011;6325;49.540;8.364;2023-08-31T04:59:51;3.72;;;3.42;;
12519;SDS011;6325;49.540;8.364;2023-08-31T05:02:18;3.80;;;3.50;;
12519;SDS011;6325;49.540;8.364;2023-08-31T05:04:45;3.35;;;3.15;;
12519;SDS011;6325;49.540;8.364;2023-08-31T05:07:12;3.13;;;2.92;;
12519;SDS011;6325;49.540;8.364;2023-08-31T05:09:41;3.10;;;2.90;;
12519;SDS011;6325;49.540;8.364;2023-08-31T05:12:08;2.88;;;2.72;;
12519;SDS011;6325;49.540;8.364;2023-08-31T05:14:35;3.10;;;2.90;;
12519;SDS011;6325;49.540;8.364;2023-08-31T05:17:04;3.47;;;3.20;;
12519;SDS011;6325;49.540;8.364;2023-08-31T05:19:31;3.30;;;3.10;;
12519;SDS011;6325;49.540;8.364;2023-08-31T05:21:59;2.97;;;2.78;;
12519;SDS011;6325;49.540;8.364;2023-08-31T05:24:26;3.15;;;2.95;;
12519;SDS011;6325;49.540;8.364;2023-08-31T05:26:54;3.13;;;2.92;;
12519;SDS011;6325;49.540;8.364;2023-08-31T05:29:21;3.20;;;3.00;;
12519;SDS011;6325;49.540;8.364;2023-08-31T05:31:49;3.00;;;2.80;;
12519;SDS011;6325;49.540;8.364;2023-08-31T05:34:20;2.95;;;2.75;;
12519;SDS011;6325;49.540;8.364;2023-08-31T05:36:48;3.30;;;3.10;;
12519;SDS011;6325;49.540;8.364;2023-08-31T05:39:15;2.92;;;2.72;;
12519;SDS011;6325;49.540;8.364;2023-08-31T05:41:42;3.10;;;2.90;;
12519;SDS011;6325;49.540;8.364;2023-08-31T05:44:11;3.10;;;2.90;;
12519;SDS011;6325;49.540;8.364;2023-08-31T05:46:38;3.08;;;2.88;;
12519;SDS011;6325;49.540;8.364;2023-08-31T05:49:06;3.30;;;3.10;;
12519;SDS011;6325;49.540;8.364;2023-08-31T05:51:33;2.67;;;2.57;;
12519;SDS011;6325;49.540;8.364;2023-08-31T05:54:00;2.67;;;2.58;;
12519;SDS011;6325;49.540;8.364;2023-08-31T05:56:28;3.03;;;2.83;;
12519;SDS011;6325;49.540;8.364;2023-08-31T05:58:55;2.72;;;2.58;;
12519;SDS011;6325;49.540;8.364;2023-08-31T06:01:23;3.15;;;2.85;;
12519;SDS011;6325;49.540;8.364;2023-08-31T06:03:50;2.42;;;2.33;;
12519;SDS011;6325;49.540;8.364;2023-08-31T06:06:18;2.53;;;2.43;;
12519;SDS011;6325;49.540;8.364;2023-08-31T06:08:45;2.70;;;2.50;;
12519;SDS011;6325;49.540;8.364;2023-08-31T06:11:13;2.60;;;2.40;;
12519;SDS011;6325;49.540;8.364;2023-08-31T06:13:40;2.40;;;2.30;;
12519;SDS011;6325;49.540;8.364;2023-08-31T06:16:08;2.58;;;2.38;;
12519;SDS011;6325;49.540;8.364;2023-08-31T06:18:37;2.20;;;2.10;;
12519;SDS011;6325;49.540;8.364;2023-08-31T06:21:04;2.80;;;2.60;;
12519;SDS011;6325;49.540;8.364;2023-08-31T06:23:31;2.75;;;2.55;;
12519;SDS011;6325;49.540;8.364;2023-08-31T06:25:58;2.50;;;2.30;;
12519;SDS011;6325;49.540;8.364;2023-08-31T06:28:25;2.58;;;2.38;;
12519;SDS011;6325;49.540;8.364;2023-08-31T06:30:52;2.40;;;2.20;;
12519;SDS011;6325;49.540;8.364;2023-08-31T06:33:19;2.42;;;2.25;;
12519;SDS011;6325;49.540;8.364;2023-08-31T06:35:48;2.60;;;2.40;;
12519;SDS011;6325;49.540;8.364;2023-08-31T06:38:16;2.65;;;2.45;;
12519;SDS011;6325;49.540;8.364;2023-08-31T06:40:43;2.50;;;2.30;;
12519;SDS011;6325;49.540;8.364;2023-08-31T06:43:11;2.42;;;2.22;;
12519;SDS011;6325;49.540;8.364;2023-08-31T06:45:38;2.33;;;2.20;;
12519;SDS011;6325;49.540;8.364;2023-08-31T06:48:06;2.45;;;2.25;;
12519;SDS011;6325;49.540;8.364;2023-08-31T06:50:33;2.35;;;2.15;;
12519;SDS011;6325;49.540;8.364;2023-08-31T06:53:03;2.35;;;2.20;;
12519;SDS011;6325;49.540;8.364;2023-08-31T06:55:30;2.20;;;2.03;;
12519;SDS011;6325;49.540;8.364;2023-08-31T06:57:58;2.10;;;2.00;;
12519;SDS011;6325;49.540;8.364;2023-08-31T07:00:26;2.50;;;2.30;;
12519;SDS011;6325;49.540;8.364;2023-08-31T07:02:53;2.30;;;2.10;;
12519;SDS011;6325;49.540;8.364;2023-08-31T07:05:24;2.47;;;2.28;;
12519;SDS011;6325;49.540;8.364;2023-08-31T07:07:52;2.03;;;1.92;;
12519;SDS011;6325;49.540;8.364;2023-08-31T07:10:21;2.33;;;2.17;;
12519;SDS011;6325;49.540;8.364;2023-08-31T07:12:48;2.00;;;1.90;;
12519;SDS011;6325;49.540;8.364;2023-08-31T07:15:15;2.03;;;1.88;;
12519;SDS011;6325;49.540;8.364;2023-08-31T07:17:43;1.90;;;1.80;;
12519;SDS011;6325;49.540;8.364;2023-08-31T07:20:10;1.50;;;1.40;;
12519;SDS011;6325;49.540;8.364;2023-08-31T07:22:37;2.47;;;2.08;;
12519;SDS011;6325;49.540;8.364;2023-08-31T07:25:06;3.38;;;2.90;;
12519;SDS011;6325;49.540;8.364;2023-08-31T07:27:35;4.20;;;3.30;;
12519;SDS011;6325;49.540;8.364;2023-08-31T07:30:03;1.65;;;1.52;;
12519;SDS011;6325;49.540;8.364;2023-08-31T07:32:31;1.90;;;1.70;;
12519;SDS011;6325;49.540;8.364;2023-08-31T07:34:58;1.60;;;1.50;;
12519;SDS011;6325;49.540;8.364;2023-08-31T07:37:25;2.95;;;2.03;;
12519;SDS011;6325;49.540;8.364;2023-08-31T07:39:53;4.67;;;3.60;;
12519;SDS011;6325;49.540;8.364;2023-08-31T07:42:20;3.22;;;2.83;;
12519;SDS011;6325;49.540;8.364;2023-08-31T07:44:48;1.52;;;1.42;;
12519;SDS011;6325;49.540;8.364;2023-08-31T07:47:16;2.43;;;2.07;;
12519;SDS011;6325;49.540;8.364;2023-08-31T07:49:43;2.40;;;2.20;;
12519;SDS011;6325;49.540;8.364;2023-08-31T07:52:10;2.10;;;1.58;;
12519;SDS011;6325;49.540;8.364;2023-08-31T07:54:37;2.63;;;2.30;;
12519;SDS011;6325;49.540;8.364;2023-08-31T07:57:05;1.67;;;1.43;;
12519;SDS011;6325;49.540;8.364;2023-08-31T07:59:32;1.50;;;1.40;;
12519;SDS011;6325;49.540;8.364;2023-08-31T08:02:01;1.60;;;1.38;;
12519;SDS011;6325;49.540;8.364;2023-08-31T08:04:28;1.60;;;1.40;;
12519;SDS011;6325;49.540;8.364;2023-08-31T08:06:55;1.45;;;1.30;;
12519;SDS011;6325;49.540;8.364;2023-08-31T08:09:24;2.22;;;2.03;;
12519;SDS011;6325;49.540;8.364;2023-08-31T08:11:51;1.70;;;1.55;;
12519;SDS011;6325;49.540;8.364;2023-08-31T08:14:18;1.40;;;1.30;;
12519;SDS011;6325;49.540;8.364;2023-08-31T08:16:45;2.13;;;1.25;;
12519;SDS011;6325;49.540;8.364;2023-08-31T08:19:14;1.77;;;1.67;;
12519;SDS011;6325;49.540;8.364;2023-08-31T08:21:47;4.97;;;3.10;;
12519;SDS011;6325;49.540;8.364;2023-08-31T08:24:14;1.63;;;1.50;;
12519;SDS011;6325;49.540;8.364;2023-08-31T08:26:41;1.80;;;1.40;;
12519;SDS011;6325;49.540;8.364;2023-08-31T08:29:08;1.50;;;1.40;;
12519;SDS011;6325;49.540;8.364;2023-08-31T08:31:36;1.48;;;1.27;;
12519;SDS011;6325;49.540;8.364;2023-08-31T08:34:03;3.20;;;2.53;;
12519;SDS011;6325;49.540;8.364;2023-08-31T08:36:32;2.30;;;2.00;;
12519;SDS011;6325;49.540;8.364;2023-08-31T08:38:59;3.40;;;2.47;;
12519;SDS011;6325;49.540;8.364;2023-08-31T08:41:26;3.75;;;3.00;;
12519;SDS011;6325;49.540;8.364;2023-08-31T08:43:56;2.83;;;2.50;;
12519;SDS011;6325;49.540;8.364;2023-08-31T08:46:24;3.50;;;2.47;;
12519;SDS011;6325;49.540;8.364;2023-08-31T08:48:52;3.65;;;2.72;;
12519;SDS011;6325;49.540;8.364;2023-08-31T08:51:19;2.97;;;2.67;;
12519;SDS011;6325;49.540;8.364;2023-08-31T08:53:48;2.10;;;1.90;;
12519;SDS011;6325;49.540;8.364;2023-08-31T08:56:17;1.30;;;1.20;;
12519;SDS011;6325;49.540;8.364;2023-08-31T08:58:44;3.92;;;2.75;;
12519;SDS011;6325;49.540;8.364;2023-08-31T09:01:11;3.72;;;2.63;;
12519;SDS011;6325;49.540;8.364;2023-08-31T09:03:42;2.42;;;2.03;;
12519;SDS011;6325;49.540;8.364;2023-08-31T09:06:09;2.87;;;2.17;;
12519;SDS011;6325;49.540;8.364;2023-08-31T09:08:36;3.47;;;2.92;;
12519;SDS011;6325;49.540;8.364;2023-08-31T09:11:05;3.47;;;2.70;;
12519;SDS011;6325;49.540;8.364;2023-08-31T09:13:32;3.75;;;2.65;;
12519;SDS011;6325;49.540;8.364;2023-08-31T09:15:59;3.58;;;2.90;;
12519;SDS011;6325;49.540;8.364;2023-08-31T09:18:27;3.70;;;3.08;;
12519;SDS011;6325;49.540;8.364;2023-08-31T09:20:55;4.50;;;3.40;;
12519;SDS011;6325;49.540;8.364;2023-08-31T09:23:22;3.23;;;2.53;;
12519;SDS011;6325;49.540;8.364;2023-08-31T09:25:50;1.75;;;1.45;;
12519;SDS011;6325;49.540;8.364;2023-08-31T09:28:20;3.45;;;2.30;;
12519;SDS011;6325;49.540;8.364;2023-08-31T09:30:48;2.90;;;2.60;;
12519;SDS011;6325;49.540;8.364;2023-08-31T09:33:16;3.23;;;2.30;;
12519;SDS011;6325;49.540;8.364;2023-08-31T09:35:47;2.87;;;2.47;;
12519;SDS011;6325;49.540;8.364;2023-08-31T09:38:15;2.30;;;2.10;;
12519;SDS011;6325;49.540;8.364;2023-08-31T09:40:42;3.25;;;2.72;;
12519;SDS011;6325;49.540;8.364;2023-08-31T09:43:09;1.58;;;1.48;;
12519;SDS011;6325;49.540;8.364;2023-08-31T09:45:38;2.33;;;1.63;;
12519;SDS011;6325;49.540;8.364;2023-08-31T09:48:05;2.60;;;2.40;;
12519;SDS011;6325;49.540;8.364;2023-08-31T09:50:33;3.38;;;2.70;;
12519;SDS011;6325;49.540;8.364;2023-08-31T09:53:01;2.08;;;1.88;;
12519;SDS011;6325;49.540;8.364;2023-08-31T09:55:29;2.45;;;2.17;;
12519;SDS011;6325;49.540;8.364;2023-08-31T09:57:57;3.88;;;3.33;;
12519;SDS011;6325;49.540;8.364;2023-08-31T10:00:25;1.90;;;1.80;;
12519;SDS011;6325;49.540;8.364;2023-08-31T10:02:54;1.20;;;1.20;;
12519;SDS011;6325;49.540;8.364;2023-08-31T10:05:23;1.60;;;1.48;;
12519;SDS011;6325;49.540;8.364;2023-08-31T10:07:50;1.77;;;1.67;;
12519;SDS011;6325;49.540;8.364;2023-08-31T10:10:18;1.77;;;1.67;;
12519;SDS011;6325;49.540;8.364;2023-08-31T10:12:47;2.40;;;2.17;;
12519;SDS011;6325;49.540;8.364;2023-08-31T10:15:15;2.38;;;1.80;;
12519;SDS011;6325;49.540;8.364;2023-08-31T10:17:42;2.15;;;1.95;;
12519;SDS011;6325;49.540;8.364;2023-08-31T10:20:11;2.30;;;2.10;;
12519;SDS011;6325;49.540;8.364;2023-08-31T10:22:39;2.63;;;2.33;;
12519;SDS011;6325;49.540;8.364;2023-08-31T10:25:07;3.35;;;2.83;;
12519;SDS011;6325;49.540;8.364;2023-08-31T10:27:38;2.13;;;1.45;;
12519;SDS011;6325;49.540;8.364;2023-08-31T10:35:43;2.95;;;2.00;;
12519;SDS011;6325;49.540;8.364;2023-08-31T10:38:14;2.65;;;2.20;;
12519;SDS011;6325;49.540;8.364;2023-08-31T10:40:42;3.08;;;2.25;;
12519;SDS011;6325;49.540;8.364;2023-08-31T10:43:15;3.58;;;3.03;;
12519;SDS011;6325;49.540;8.364;2023-08-31T10:45:43;4.85;;;3.55;;
12519;SDS011;6325;49.540;8.364;2023-08-31T10:48:10;2.50;;;2.30;;
12519;SDS011;6325;49.540;8.364;2023-08-31T10:50:41;2.80;;;2.33;;
12519;SDS011;6325;49.540;8.364;2023-08-31T10:53:09;1.73;;;1.63;;
12519;SDS011;6325;49.540;8.364;2023-08-31T10:55:49;1.95;;;1.85;;
12519;SDS011;6325;49.540;8.364;2023-08-31T10:58:16;2.22;;;2.00;;
12519;SDS011;6325;49.540;8.364;2023-08-31T11:00:46;3.10;;;2.75;;
12519;SDS011;6325;49.540;8.364;2023-08-31T11:03:14;3.40;;;2.60;;
12519;SDS011;6325;49.540;8.364;2023-08-31T11:05:51;2.97;;;2.60;;
12519;SDS011;6325;49.540;8.364;2023-08-31T11:08:21;2.78;;;2.58;;
12519;SDS011;6325;49.540;8.364;2023-08-31T11:10:48;3.85;;;3.45;;
12519;SDS011;6325;49.540;8.364;2023-08-31T11:13:16;3.33;;;2.97;;
12519;SDS011;6325;49.540;8.364;2023-08-31T11:15:45;4.78;;;3.50;;
12519;SDS011;6325;49.540;8.364;2023-08-31T11:18:14;3.80;;;2.80;;
12519;SDS011;6325;49.540;8.364;2023-08-31T11:20:42;3.58;;;2.83;;
12519;SDS011;6325;49.540;8.364;2023-08-31T11:23:11;3.83;;;2.80;;
12519;SDS011;6325;49.540;8.364;2023-08-31T11:25:38;3.38;;;2.67;;
12519;SDS011;6325;49.540;8.364;2023-08-31T11:28:06;4.65;;;3.40;;
12519;SDS011;6325;49.540;8.364;2023-08-31T11:30:34;4.40;;;3.30;;
12519;SDS011;6325;49.540;8.364;2023-08-31T11:33:05;2.97;;;2.58;;
12519;SDS011;6325;49.540;8.364;2023-08-31T11:35:33;3.83;;;3.00;;
12519;SDS011;6325;49.540;8.364;2023-08-31T11:38:00;3.72;;;2.83;;
12519;SDS011;6325;49.540;8.364;2023-08-31T11:40:29;3.92;;;3.10;;
12519;SDS011;6325;49.540;8.364;2023-08-31T11:42:57;3.95;;;2.75;;
12519;SDS011;6325;49.540;8.364;2023-08-31T11:45:25;3.80;;;2.97;;
12519;SDS011;6325;49.540;8.364;2023-08-31T11:47:52;3.55;;;3.00;;
12519;SDS011;6325;49.540;8.364;2023-08-31T11:50:20;3.00;;;2.50;;
12519;SDS011;6325;49.540;8.364;2023-08-31T11:52:48;5.63;;;4.00;;
12519;SDS011;6325;49.540;8.364;2023-08-31T11:55:16;5.13;;;3.75;;
12519;SDS011;6325;49.540;8.364;2023-08-31T11:57:48;3.00;;;2.70;;
12519;SDS011;6325;49.540;8.364;2023-08-31T12:00:16;3.20;;;2.70;;
12519;SDS011;6325;49.540;8.364;2023-08-31T12:02:44;2.15;;;1.80;;
12519;SDS011;6325;49.540;8.364;2023-08-31T12:05:14;2.88;;;1.80;;
12519;SDS011;6325;49.540;8.364;2023-08-31T12:07:41;3.50;;;2.90;;
12519;SDS011;6325;49.540;8.364;2023-08-31T12:10:08;4.20;;;3.22;;
12519;SDS011;6325;49.540;8.364;2023-08-31T12:12:36;2.00;;;1.77;;
12519;SDS011;6325;49.540;8.364;2023-08-31T12:15:05;3.45;;;2.65;;
12519;SDS011;6325;49.540;8.364;2023-08-31T12:17:36;4.88;;;3.33;;
12519;SDS011;6325;49.540;8.364;2023-08-31T12:20:05;3.17;;;2.67;;
12519;SDS011;6325;49.540;8.364;2023-08-31T12:22:32;2.85;;;2.38;;
12519;SDS011;6325;49.540;8.364;2023-08-31T12:25:00;4.53;;;3.10;;
12519;SDS011;6325;49.540;8.364;2023-08-31T12:27:27;2.85;;;2.38;;
12519;SDS011;6325;49.540;8.364;2023-08-31T12:29:55;4.68;;;3.30;;
12519;SDS011;6325;49.540;8.364;2023-08-31T12:32:24;3.50;;;2.63;;
12519;SDS011;6325;49.540;8.364;2023-08-31T12:34:51;3.60;;;2.90;;
12519;SDS011;6325;49.540;8.364;2023-08-31T12:37:18;3.92;;;3.00;;
12519;SDS011;6325;49.540;8.364;2023-08-31T12:39:45;4.82;;;3.50;;
12519;SDS011;6325;49.540;8.364;2023-08-31T12:42:13;2.53;;;1.70;;
12519;SDS011;6325;49.540;8.364;2023-08-31T12:44:40;3.08;;;2.13;;
12519;SDS011;6325;49.540;8.364;2023-08-31T12:47:07;2.70;;;2.20;;
12519;SDS011;6325;49.540;8.364;2023-08-31T12:49:36;3.20;;;2.28;;
12519;SDS011;6325;49.540;8.364;2023-08-31T12:52:03;2.28;;;1.80;;
12519;SDS011;6325;49.540;8.364;2023-08-31T12:54:31;2.80;;;2.20;;
12519;SDS011;6325;49.540;8.364;2023-08-31T12:56:58;3.50;;;2.75;;
12519;SDS011;6325;49.540;8.364;2023-08-31T12:59:25;2.80;;;2.00;;
12519;SDS011;6325;49.540;8.364;2023-08-31T13:01:53;3.67;;;3.00;;
12519;SDS011;6325;49.540;8.364;2023-08-31T13:04:20;4.38;;;3.47;;
12519;SDS011;6325;49.540;8.364;2023-08-31T13:06:48;2.20;;;2.00;;
12519;SDS011;6325;49.540;8.364;2023-08-31T13:09:16;2.23;;;2.03;;
12519;SDS011;6325;49.540;8.364;2023-08-31T13:11:43;2.15;;;1.92;;
12519;SDS011;6325;49.540;8.364;2023-08-31T13:14:10;4.90;;;3.20;;
12519;SDS011;6325;49.540;8.364;2023-08-31T13:16:37;3.38;;;2.78;;
12519;SDS011;6325;49.540;8.364;2023-08-31T13:19:05;3.10;;;2.70;;
12519;SDS011;6325;49.540;8.364;2023-08-31T13:21:32;4.32;;;3.17;;
12519;SDS011;6325;49.540;8.364;2023-08-31T13:24:01;3.47;;;2.63;;
12519;SDS011;6325;49.540;8.364;2023-08-31T13:26:28;4.33;;;3.00;;
12519;SDS011;6325;49.540;8.364;2023-08-31T13:28:56;3.10;;;2.10;;
12519;SDS011;6325;49.540;8.364;2023-08-31T13:31:23;3.72;;;2.67;;
12519;SDS011;6325;49.540;8.364;2023-08-31T13:33:50;5.03;;;3.50;;
12519;SDS011;6325;49.540;8.364;2023-08-31T13:36:17;5.57;;;3.88;;
12519;SDS011;6325;49.540;8.364;2023-08-31T13:38:44;3.65;;;3.00;;
12519;SDS011;6325;49.540;8.364;2023-08-31T13:41:13;2.30;;;2.03;;
12519;SDS011;6325;49.540;8.364;2023-08-31T13:43:40;5.13;;;3.60;;
12519;SDS011;6325;49.540;8.364;2023-08-31T13:46:07;4.50;;;3.35;;
12519;SDS011;6325;49.540;8.364;2023-08-31T13:48:35;5.47;;;3.67;;
12519;SDS011;6325;49.540;8.364;2023-08-31T13:51:02;4.13;;;2.83;;
12519;SDS011;6325;49.540;8.364;2023-08-31T13:53:29;4.32;;;2.78;;
12519;SDS011;6325;49.540;8.364;2023-08-31T13:55:57;4.35;;;3.17;;
12519;SDS011;6325;49.540;8.364;2023-08-31T13:58:25;2.25;;;1.98;;
12519;SDS011;6325;49.540;8.364;2023-08-31T14:00:52;3.97;;;3.00;;
12519;SDS011;6325;49.540;8.364;2023-08-31T14:03:19;3.33;;;2.70;;
12519;SDS011;6325;49.540;8.364;2023-08-31T14:05:48;3.40;;;2.90;;
12519;SDS011;6325;49.540;8.364;2023-08-31T14:08:15;2.50;;;2.30;;
12519;SDS011;6325;49.540;8.364;2023-08-31T14:10:43;2.93;;;2.40;;
12519;SDS011;6325;49.540;8.364;2023-08-31T14:13:10;4.43;;;2.60;;
12519;SDS011;6325;49.540;8.364;2023-08-31T14:15:38;3.45;;;2.72;;
12519;SDS011;6325;49.540;8.364;2023-08-31T14:18:11;3.03;;;2.70;;
12519;SDS011;6325;49.540;8.364;2023-08-31T14:20:38;2.45;;;2.22;;
12519;SDS011;6325;49.540;8.364;2023-08-31T14:23:05;3.30;;;2.50;;
12519;SDS011;6325;49.540;8.364;2023-08-31T14:25:33;2.33;;;2.13;;
12519;SDS011;6325;49.540;8.364;2023-08-31T14:28:01;2.65;;;2.40;;
12519;SDS011;6325;49.540;8.364;2023-08-31T14:30:28;2.80;;;2.20;;
12519;SDS011;6325;49.540;8.364;2023-08-31T14:32:56;4.05;;;2.83;;
12519;SDS011;6325;49.540;8.364;2023-08-31T14:35:24;3.05;;;2.50;;
12519;SDS011;6325;49.540;8.364;2023-08-31T14:37:51;3.03;;;2.13;;
12519;SDS011;6325;49.540;8.364;2023-08-31T14:40:18;1.73;;;1.60;;
12519;SDS011;6325;49.540;8.364;2023-08-31T14:42:45;2.70;;;2.35;;
12519;SDS011;6325;49.540;8.364;2023-08-31T14:45:13;2.35;;;1.73;;
12519;SDS011;6325;49.540;8.364;2023-08-31T14:47:40;2.65;;;2.08;;
12519;SDS011;6325;49.540;8.364;2023-08-31T14:50:09;2.30;;;2.03;;
12519;SDS011;6325;49.540;8.364;2023-08-31T14:52:36;4.10;;;2.60;;
12519;SDS011;6325;49.540;8.364;2023-08-31T14:55:03;3.65;;;2.60;;
12519;SDS011;6325;49.540;8.364;2023-08-31T14:57:31;2.80;;;2.10;;
12519;SDS011;6325;49.540;8.364;2023-08-31T14:59:58;2.40;;;2.10;;
12519;SDS011;6325;49.540;8.364;2023-08-31T15:02:25;2.50;;;2.28;;
12519;SDS011;6325;49.540;8.364;2023-08-31T15:04:52;2.65;;;2.33;;
12519;SDS011;6325;49.540;8.364;2023-08-31T15:07:21;4.40;;;3.17;;
12519;SDS011;6325;49.540;8.364;2023-08-31T15:09:48;4.30;;;3.30;;